createdAt,value
2024-04-24T00:01:49.948Z,3.47
2024-04-24T00:04:17.721Z,4.05
2024-04-24T00:06:45.338Z,6.68
2024-04-24T00:09:13.504Z,5.13
2024-04-24T00:11:41.156Z,4.88
2024-04-24T00:14:08.888Z,5.40
2024-04-24T00:16:36.887Z,5.43
2024-04-24T00:19:04.371Z,4.63
2024-04-24T00:21:31.966Z,4.38
2024-04-24T00:23:59.480Z,3.20
2024-04-24T00:26:26.995Z,3.83
2024-04-24T00:28:54.641Z,5.30
2024-04-24T00:31:22.288Z,3.60
2024-04-24T00:33:50.034Z,3.92
2024-04-24T00:36:17.599Z,6.85
2024-04-24T00:38:45.127Z,4.95
2024-04-24T00:41:12.728Z,4.65
2024-04-24T00:43:40.311Z,4.40
2024-04-24T00:46:09.949Z,5.65
2024-04-24T00:48:38.895Z,4.53
2024-04-24T00:51:06.689Z,5.53
2024-04-24T00:53:35.014Z,7.00
2024-04-24T00:56:07.111Z,3.88
2024-04-24T00:58:38.762Z,4.10
2024-04-24T01:01:07.136Z,5.93
2024-04-24T01:03:34.638Z,3.60
2024-04-24T01:06:02.249Z,4.20
2024-04-24T01:08:30.141Z,4.43
2024-04-24T01:10:59.262Z,6.47
2024-04-24T01:13:27.545Z,5.30
2024-04-24T01:16:06.313Z,5.55
2024-04-24T01:18:37.983Z,4.68
2024-04-24T01:21:06.951Z,6.50
2024-04-24T01:23:44.638Z,5.22
2024-04-24T01:26:42.901Z,4.65
2024-04-24T01:29:10.553Z,6.68
2024-04-24T01:31:38.379Z,5.95
2024-04-24T01:34:05.980Z,7.63
2024-04-24T01:36:33.508Z,7.10
2024-04-24T01:39:01.130Z,6.65
2024-04-24T01:41:28.840Z,5.68
2024-04-24T01:43:56.452Z,7.25
2024-04-24T01:46:23.940Z,6.05
2024-04-24T01:48:51.645Z,6.65
2024-04-24T01:51:19.216Z,7.50
2024-04-24T01:53:46.831Z,6.45
2024-04-24T01:56:14.715Z,5.20
2024-04-24T01:58:42.208Z,5.18
2024-04-24T02:01:09.874Z,5.57
2024-04-24T02:03:37.552Z,4.88
2024-04-24T02:06:05.435Z,6.07
2024-04-24T02:08:35.653Z,5.57
2024-04-24T02:11:03.445Z,5.80
2024-04-24T02:13:31.019Z,4.90
2024-04-24T02:15:58.595Z,7.03
2024-04-24T02:18:26.281Z,6.15
2024-04-24T02:20:53.905Z,8.80
2024-04-24T02:23:21.977Z,6.53
2024-04-24T02:25:50.234Z,5.63
2024-04-24T02:28:17.856Z,8.23
2024-04-24T02:30:45.495Z,9.10
2024-04-24T02:33:13.207Z,4.65
2024-04-24T02:35:40.836Z,6.43
2024-04-24T02:38:09.187Z,5.45
2024-04-24T02:40:36.735Z,6.78
2024-04-24T02:43:04.424Z,7.20
2024-04-24T02:45:32.043Z,9.73
2024-04-24T02:47:59.661Z,7.30
2024-04-24T02:50:28.576Z,8.18
2024-04-24T02:52:56.434Z,8.60
2024-04-24T02:55:23.967Z,7.05
2024-04-24T02:57:51.645Z,10.30
2024-04-24T03:00:19.324Z,7.13
2024-04-24T03:02:46.974Z,7.78
2024-04-24T03:05:14.826Z,6.45
2024-04-24T03:07:42.394Z,9.80
2024-04-24T03:10:09.971Z,7.13
2024-04-24T03:12:37.503Z,5.97
2024-04-24T03:15:05.499Z,8.50
2024-04-24T03:17:33.314Z,6.63
2024-04-24T03:20:01.110Z,6.15
2024-04-24T03:22:30.275Z,6.28
2024-04-24T03:24:57.813Z,6.68
2024-04-24T03:27:25.318Z,6.43
2024-04-24T03:29:53.004Z,6.15
2024-04-24T03:32:20.534Z,6.28
2024-04-24T03:34:48.168Z,7.63
2024-04-24T03:37:15.765Z,6.18
2024-04-24T03:39:43.349Z,5.97
2024-04-24T03:42:10.895Z,6.13
2024-04-24T03:44:38.531Z,5.88
2024-04-24T03:47:06.451Z,5.65
2024-04-24T03:49:34.025Z,6.82
2024-04-24T03:52:01.576Z,7.07
2024-04-24T03:54:29.120Z,7.32
2024-04-24T03:56:58.096Z,6.72
2024-04-24T03:59:25.885Z,6.53
2024-04-24T04:01:53.578Z,7.60
2024-04-24T04:04:21.276Z,7.40
2024-04-24T04:06:48.928Z,8.27
2024-04-24T04:09:16.454Z,7.22
2024-04-24T04:11:44.097Z,6.97
2024-04-24T04:14:11.706Z,6.47
2024-04-24T04:16:39.392Z,5.80
2024-04-24T04:19:07.075Z,4.97
2024-04-24T04:21:34.568Z,7.80
2024-04-24T04:24:02.130Z,5.60
2024-04-24T04:26:29.748Z,8.43
2024-04-24T04:28:57.401Z,5.90
2024-04-24T04:31:24.972Z,6.40
2024-04-24T04:33:53.068Z,6.28
2024-04-24T04:36:20.697Z,7.53
2024-04-24T04:38:48.308Z,6.68
2024-04-24T04:41:15.814Z,5.85
2024-04-24T04:43:43.382Z,6.72
2024-04-24T04:46:10.906Z,7.43
2024-04-24T04:48:38.606Z,8.65
2024-04-24T04:51:06.565Z,6.82
2024-04-24T04:53:34.380Z,7.40
2024-04-24T04:56:02.133Z,5.90
2024-04-24T04:58:29.684Z,7.60
2024-04-24T05:00:57.426Z,6.80
2024-04-24T05:03:25.194Z,5.78
2024-04-24T05:05:54.370Z,7.85
2024-04-24T05:08:22.004Z,6.95
2024-04-24T05:10:49.916Z,6.13
2024-04-24T05:13:18.586Z,6.32
2024-04-24T05:15:46.167Z,6.38
2024-04-24T05:18:14.538Z,6.10
2024-04-24T05:20:42.272Z,5.60
2024-04-24T05:23:09.976Z,6.07
2024-04-24T05:25:38.518Z,7.53
2024-04-24T05:28:28.017Z,6.72
2024-04-24T05:30:55.617Z,7.28
2024-04-24T05:33:23.314Z,7.57
2024-04-24T05:35:50.937Z,5.93
2024-04-24T05:38:18.708Z,6.35
2024-04-24T05:40:46.378Z,6.05
2024-04-24T05:43:16.593Z,6.70
2024-04-24T05:45:44.497Z,8.90
2024-04-24T05:48:12.419Z,8.77
2024-04-24T05:50:40.038Z,5.35
2024-04-24T05:53:07.768Z,8.00
2024-04-24T05:55:35.790Z,6.97
2024-04-24T05:58:04.157Z,5.97
2024-04-24T06:00:31.655Z,6.47
2024-04-24T06:03:00.253Z,7.40
2024-04-24T06:05:27.962Z,5.53
2024-04-24T06:07:56.459Z,6.65
2024-04-24T06:10:24.034Z,5.97
2024-04-24T06:12:51.613Z,7.53
2024-04-24T06:15:19.322Z,6.93
2024-04-24T06:17:46.965Z,6.75
2024-04-24T06:20:17.888Z,6.32
2024-04-24T06:22:45.969Z,7.00
2024-04-24T06:25:13.793Z,8.00
2024-04-24T06:27:41.458Z,6.38
2024-04-24T06:30:09.175Z,5.68
2024-04-24T06:32:36.961Z,6.30
2024-04-24T06:35:05.143Z,5.90
2024-04-24T06:37:32.721Z,7.43
2024-04-24T06:40:00.354Z,8.40
2024-04-24T06:42:29.565Z,6.32
2024-04-24T06:44:57.120Z,8.05
2024-04-24T06:47:24.826Z,10.48
2024-04-24T06:49:52.493Z,8.07
2024-04-24T06:52:19.999Z,6.70
2024-04-24T06:54:47.576Z,9.88
2024-04-24T06:57:15.183Z,12.75
2024-04-24T06:59:43.043Z,8.73
2024-04-24T07:02:10.720Z,10.00
2024-04-24T07:04:39.076Z,10.88
2024-04-24T07:07:06.632Z,7.50
2024-04-24T07:09:34.554Z,10.00
2024-04-24T07:12:02.340Z,6.63
2024-04-24T07:14:30.288Z,8.05
2024-04-24T07:16:57.928Z,8.13
2024-04-24T07:19:25.607Z,7.93
2024-04-24T07:21:53.145Z,6.93
2024-04-24T07:24:20.772Z,7.13
2024-04-24T07:26:48.347Z,6.60
2024-04-24T07:29:15.936Z,11.88
2024-04-24T07:31:43.541Z,6.70
2024-04-24T07:34:11.103Z,7.80
2024-04-24T07:36:38.817Z,8.98
2024-04-24T07:39:06.459Z,6.45
2024-04-24T07:41:34.014Z,7.15
2024-04-24T07:44:01.669Z,10.23
2024-04-24T07:46:29.258Z,6.43
2024-04-24T07:48:56.902Z,6.22
2024-04-24T07:51:24.511Z,7.28
2024-04-24T07:53:52.217Z,5.85
2024-04-24T07:56:19.865Z,5.65
2024-04-24T07:58:47.410Z,5.15
2024-04-24T08:01:16.899Z,8.48
2024-04-24T08:03:44.464Z,11.40
2024-04-24T08:06:12.102Z,9.88
2024-04-24T08:08:40.531Z,8.30
2024-04-24T08:11:08.660Z,8.98
2024-04-24T08:13:36.350Z,9.90
2024-04-24T08:16:04.114Z,9.98
2024-04-24T08:18:31.708Z,7.10
2024-04-24T08:20:59.365Z,8.65
2024-04-24T08:23:27.573Z,9.10
2024-04-24T08:25:56.024Z,10.68
2024-04-24T08:28:33.234Z,9.63
2024-04-24T08:31:08.752Z,9.38
2024-04-24T08:33:37.461Z,10.90
2024-04-24T08:36:08.024Z,7.25
2024-04-24T08:38:35.755Z,10.93
2024-04-24T08:41:10.891Z,8.57
2024-04-24T08:43:43.311Z,7.97
2024-04-24T08:46:12.108Z,10.07
2024-04-24T08:48:41.528Z,10.13
2024-04-24T08:51:10.941Z,9.40
2024-04-24T08:53:54.573Z,7.75
2024-04-24T08:56:28.176Z,7.75
2024-04-24T08:59:01.171Z,9.95
2024-04-24T09:01:33.431Z,9.57
2024-04-24T09:04:09.872Z,8.52
2024-04-24T09:06:39.818Z,11.45
2024-04-24T09:09:09.161Z,8.25
2024-04-24T09:11:37.006Z,12.55
2024-04-24T09:14:05.395Z,6.60
2024-04-24T09:16:36.428Z,13.50
2024-04-24T09:19:05.750Z,8.57
2024-04-24T09:21:33.747Z,8.30
2024-04-24T09:24:01.631Z,11.30
2024-04-24T09:26:29.894Z,6.00
2024-04-24T09:28:57.628Z,5.28
2024-04-24T09:31:25.272Z,6.50
2024-04-24T09:33:52.813Z,5.05
2024-04-24T09:36:20.473Z,3.75
2024-04-24T09:38:48.072Z,4.70
2024-04-24T09:41:16.055Z,3.38
2024-04-24T09:43:44.220Z,3.50
2024-04-24T09:46:13.247Z,4.95
2024-04-24T09:48:41.306Z,3.40
2024-04-24T09:51:11.568Z,4.72
2024-04-24T09:53:39.636Z,4.03
2024-04-24T09:56:22.348Z,6.72
2024-04-24T09:58:56.630Z,8.07
2024-04-24T10:01:27.649Z,6.00
2024-04-24T10:03:58.642Z,6.35
2024-04-24T10:06:28.835Z,6.40
2024-04-24T10:08:59.290Z,4.20
2024-04-24T10:11:31.097Z,7.30
2024-04-24T10:14:00.438Z,7.20
2024-04-24T10:16:28.560Z,4.32
2024-04-24T10:18:57.407Z,5.05
2024-04-24T10:21:25.301Z,6.05
2024-04-24T10:23:53.405Z,8.88
2024-04-24T10:26:22.309Z,4.32
2024-04-24T10:28:51.063Z,3.97
2024-04-24T10:31:20.037Z,4.07
2024-04-24T10:33:47.994Z,2.92
2024-04-24T10:36:15.806Z,4.07
2024-04-24T10:38:44.543Z,5.40
2024-04-24T10:41:12.385Z,4.68
2024-04-24T10:43:42.899Z,3.92
2024-04-24T10:46:10.688Z,4.72
2024-04-24T10:48:45.014Z,6.32
2024-04-24T10:51:12.711Z,4.25
2024-04-24T10:53:55.991Z,5.60
2024-04-24T10:56:36.474Z,4.82
2024-04-24T10:59:07.362Z,5.85
2024-04-24T11:01:42.819Z,3.30
2024-04-24T11:04:19.267Z,5.95
2024-04-24T11:06:46.930Z,4.63
2024-04-24T11:09:14.791Z,7.28
2024-04-24T11:11:43.030Z,6.03
2024-04-24T11:14:13.585Z,5.65
2024-04-24T11:16:55.779Z,10.25
2024-04-24T11:19:23.955Z,5.30
2024-04-24T11:21:51.577Z,7.35
2024-04-24T11:24:48.444Z,7.05
2024-04-24T11:27:16.202Z,6.07
2024-04-24T11:29:43.892Z,7.45
2024-04-24T11:32:12.538Z,5.82
2024-04-24T11:34:41.204Z,5.57
2024-04-24T11:37:09.252Z,9.05
2024-04-24T11:39:37.171Z,7.75
2024-04-24T11:42:05.028Z,8.43
2024-04-24T11:44:34.030Z,7.60
2024-04-24T11:47:01.853Z,7.80
2024-04-24T11:49:29.606Z,8.38
2024-04-24T11:51:57.562Z,7.25
2024-04-24T11:54:28.968Z,6.45
2024-04-24T11:57:01.223Z,6.95
2024-04-24T11:59:31.108Z,8.38
2024-04-24T12:01:58.993Z,10.55
2024-04-24T12:04:26.775Z,8.57
2024-04-24T12:06:54.602Z,9.60
2024-04-24T12:09:22.151Z,7.53
2024-04-24T12:11:50.881Z,7.10
2024-04-24T12:14:18.676Z,9.60
2024-04-24T12:16:46.348Z,11.45
2024-04-24T12:19:13.969Z,10.45
2024-04-24T12:21:43.113Z,7.85
2024-04-24T12:24:10.915Z,7.53
2024-04-24T12:26:38.540Z,10.60
2024-04-24T12:29:06.120Z,10.55
2024-04-24T12:31:33.815Z,10.90
2024-04-24T12:34:01.701Z,10.10
2024-04-24T12:36:29.334Z,9.45
2024-04-24T12:38:56.956Z,10.10
2024-04-24T12:41:24.708Z,9.43
2024-04-24T12:43:52.433Z,10.05
2024-04-24T12:46:20.080Z,9.35
2024-04-24T12:48:54.554Z,12.80
2024-04-24T12:51:26.081Z,8.43
2024-04-24T12:53:53.925Z,10.82
2024-04-24T12:56:21.542Z,7.85
2024-04-24T12:58:51.088Z,6.47
2024-04-24T13:01:19.961Z,7.28
2024-04-24T13:03:48.770Z,6.72
2024-04-24T13:06:23.963Z,7.45
2024-04-24T13:08:52.197Z,9.30
2024-04-24T13:11:20.048Z,6.57
2024-04-24T13:13:47.736Z,6.15
2024-04-24T13:16:15.473Z,8.82
2024-04-24T13:18:44.121Z,5.05
2024-04-24T13:21:11.824Z,5.93
2024-04-24T13:23:39.381Z,6.65
2024-04-24T13:26:06.955Z,8.05
2024-04-24T13:28:34.486Z,6.03
2024-04-24T13:31:05.649Z,6.35
2024-04-24T13:33:35.211Z,5.82
2024-04-24T13:36:02.925Z,8.30
2024-04-24T13:38:30.482Z,7.28
2024-04-24T13:41:05.154Z,9.38
2024-04-24T13:43:32.917Z,13.10
2024-04-24T13:46:00.529Z,8.98
2024-04-24T13:48:31.462Z,8.98
2024-04-24T13:51:00.583Z,13.00
2024-04-24T13:53:28.216Z,8.60
2024-04-24T13:55:55.957Z,13.18
2024-04-24T13:58:23.600Z,10.88
2024-04-24T14:00:51.591Z,11.15
2024-04-24T14:03:19.264Z,10.60
2024-04-24T14:05:50.877Z,12.48
2024-04-24T14:08:18.585Z,10.07
2024-04-24T14:10:46.720Z,12.60
2024-04-24T14:13:14.438Z,10.32
2024-04-24T14:15:42.288Z,11.15
2024-04-24T14:18:09.934Z,10.40
2024-04-24T14:20:37.701Z,9.32
2024-04-24T14:23:06.047Z,11.45
2024-04-24T14:25:35.446Z,11.90
2024-04-24T14:28:03.873Z,14.23
2024-04-24T14:30:31.492Z,12.00
2024-04-24T14:32:59.333Z,15.98
2024-04-24T14:35:27.248Z,13.50
2024-04-24T14:37:55.020Z,14.27
2024-04-24T14:40:22.628Z,14.25
2024-04-24T14:42:50.253Z,13.75
2024-04-24T14:45:17.958Z,13.38
2024-04-24T14:47:46.725Z,15.18
2024-04-24T14:50:14.725Z,14.95
2024-04-24T14:52:42.515Z,14.43
2024-04-24T14:55:10.685Z,16.65
2024-04-24T14:57:38.372Z,15.48
2024-04-24T15:00:06.725Z,17.00
2024-04-24T15:02:34.310Z,17.38
2024-04-24T15:05:02.178Z,20.50
2024-04-24T15:07:29.841Z,22.90
2024-04-24T15:09:57.785Z,22.80
2024-04-24T15:12:25.419Z,24.23
2024-04-24T15:14:53.093Z,33.83
2024-04-24T15:17:20.779Z,26.05
2024-04-24T15:19:48.511Z,25.40
2024-04-24T15:22:16.239Z,24.90
2024-04-24T15:24:43.836Z,25.00
2024-04-24T15:27:11.474Z,25.73
2024-04-24T15:29:39.034Z,26.70
2024-04-24T15:32:06.785Z,24.85
2024-04-24T15:34:35.065Z,28.10
2024-04-24T15:37:05.494Z,26.70
2024-04-24T15:39:33.430Z,24.98
2024-04-24T15:42:00.987Z,22.33
2024-04-24T15:44:28.898Z,24.30
2024-04-24T15:46:56.542Z,23.90
2024-04-24T15:49:24.137Z,27.05
2024-04-24T15:51:51.702Z,25.13
2024-04-24T15:54:19.226Z,28.13
2024-04-24T15:56:46.760Z,27.50
2024-04-24T15:59:14.409Z,26.73
2024-04-24T16:01:42.136Z,25.65
2024-04-24T16:04:09.798Z,25.27
2024-04-24T16:06:37.437Z,28.02
2024-04-24T16:09:04.996Z,25.75
2024-04-24T16:11:32.739Z,25.55
2024-04-24T16:14:00.320Z,27.52
2024-04-24T16:16:28.051Z,28.27
2024-04-24T16:18:55.710Z,25.80
2024-04-24T16:21:23.475Z,25.15
2024-04-24T16:23:51.172Z,26.45
2024-04-24T16:26:18.874Z,23.92
2024-04-24T16:28:46.625Z,22.60
2024-04-24T16:31:14.660Z,22.05
2024-04-24T16:33:42.562Z,22.55
2024-04-24T16:36:11.712Z,23.23
2024-04-24T16:38:39.366Z,24.10
2024-04-24T16:41:08.131Z,22.27
2024-04-24T16:43:35.757Z,23.02
2024-04-24T16:46:03.415Z,26.75
2024-04-24T16:48:31.256Z,24.38
2024-04-24T16:50:58.878Z,19.58
2024-04-24T16:53:26.668Z,21.63
2024-04-24T16:55:54.268Z,24.90
2024-04-24T16:58:21.755Z,27.05
2024-04-24T17:00:49.560Z,25.52
2024-04-24T17:03:17.388Z,18.80
2024-04-24T17:05:45.042Z,19.00
2024-04-24T17:08:12.675Z,17.83
2024-04-24T17:10:41.616Z,17.95
2024-04-24T17:13:09.204Z,11.55
2024-04-24T17:15:36.893Z,6.85
2024-04-24T17:18:04.852Z,6.18
2024-04-24T17:20:32.747Z,9.68
2024-04-24T17:23:00.626Z,8.23
2024-04-24T17:25:28.425Z,6.45
2024-04-24T17:27:56.009Z,7.57
2024-04-24T17:30:23.620Z,8.30
2024-04-24T17:32:52.137Z,8.70
2024-04-24T17:35:20.100Z,8.05
2024-04-24T17:37:47.784Z,7.15
2024-04-24T17:40:15.494Z,8.60
2024-04-24T17:42:43.594Z,6.28
2024-04-24T17:45:11.168Z,6.10
2024-04-24T17:47:38.874Z,6.35
2024-04-24T17:50:07.420Z,4.88
2024-04-24T17:52:36.708Z,4.88
2024-04-24T17:55:05.528Z,5.25
2024-04-24T17:57:34.080Z,4.63
2024-04-24T18:00:02.339Z,3.88
2024-04-24T18:02:32.038Z,4.13
2024-04-24T18:05:01.931Z,2.65
2024-04-24T18:07:29.623Z,3.53
2024-04-24T18:09:57.254Z,3.55
2024-04-24T18:12:24.898Z,3.00
2024-04-24T18:14:52.474Z,2.92
2024-04-24T18:17:21.174Z,3.60
2024-04-24T18:19:48.724Z,9.98
2024-04-24T18:22:16.415Z,7.68
2024-04-24T18:24:44.094Z,5.35
2024-04-24T18:27:11.776Z,8.27
2024-04-24T18:29:39.358Z,6.82
2024-04-24T18:32:07.351Z,7.10
2024-04-24T18:34:34.946Z,5.93
2024-04-24T18:37:02.588Z,6.40
2024-04-24T18:39:30.377Z,6.75
2024-04-24T18:41:58.208Z,5.50
2024-04-24T18:44:25.879Z,6.53
2024-04-24T18:46:53.543Z,5.30
2024-04-24T18:49:21.180Z,6.35
2024-04-24T18:51:48.835Z,5.97
2024-04-24T18:54:16.409Z,7.78
2024-04-24T18:56:44.226Z,6.43
2024-04-24T18:59:12.176Z,5.93
2024-04-24T19:01:39.763Z,6.60
2024-04-24T19:04:13.351Z,7.57
2024-04-24T19:09:11.863Z,5.90
2024-04-24T19:11:39.577Z,7.22
2024-04-24T19:14:07.226Z,6.05
2024-04-24T19:16:37.424Z,6.07
2024-04-24T19:19:05.672Z,6.90
2024-04-24T19:21:33.216Z,8.02
2024-04-24T19:24:00.822Z,7.53
2024-04-24T19:26:29.803Z,10.82
2024-04-24T19:28:57.707Z,7.15
2024-04-24T19:31:32.501Z,8.85
2024-04-24T19:34:01.430Z,7.57
2024-04-24T19:36:28.943Z,8.20
2024-04-24T19:38:57.071Z,7.10
2024-04-24T19:41:24.660Z,8.38
2024-04-24T19:43:52.238Z,8.38
2024-04-24T19:46:19.847Z,8.70
2024-04-24T19:48:47.423Z,7.97
2024-04-24T19:51:17.853Z,6.85
2024-04-24T19:53:45.602Z,6.10
2024-04-24T19:56:13.212Z,10.02
2024-04-24T19:58:40.914Z,7.47
2024-04-24T20:01:10.029Z,7.57
2024-04-24T20:03:39.051Z,10.13
2024-04-24T20:06:08.134Z,13.60
2024-04-24T20:08:36.554Z,6.50
2024-04-24T20:11:08.119Z,7.70
2024-04-24T20:13:36.617Z,8.80
2024-04-24T20:16:08.594Z,6.72
2024-04-24T20:18:39.294Z,8.65
2024-04-24T20:21:16.852Z,11.77
2024-04-24T20:23:44.781Z,7.45
2024-04-24T20:26:25.225Z,10.07
2024-04-24T20:28:53.002Z,8.05
2024-04-24T20:31:27.626Z,9.43
2024-04-24T20:33:57.733Z,9.05
2024-04-24T20:36:27.661Z,8.60
2024-04-24T20:38:56.823Z,7.43
2024-04-24T20:41:26.195Z,7.22
2024-04-24T20:43:53.881Z,7.32
2024-04-24T20:46:21.536Z,8.90
2024-04-24T20:48:49.425Z,7.70
2024-04-24T20:51:16.986Z,8.48
2024-04-24T20:53:44.734Z,7.13
2024-04-24T20:56:18.616Z,8.88
2024-04-24T20:58:46.463Z,8.60
2024-04-24T21:01:14.715Z,7.22
2024-04-24T21:03:42.324Z,6.88
2024-04-24T21:06:11.490Z,6.65
2024-04-24T21:08:39.754Z,10.70
2024-04-24T21:11:09.050Z,5.93
2024-04-24T21:13:37.756Z,6.60
2024-04-24T21:16:10.922Z,6.28
2024-04-24T21:18:38.678Z,7.80
2024-04-24T21:21:06.298Z,6.25
2024-04-24T21:23:33.925Z,7.80
2024-04-24T21:26:02.044Z,7.38
2024-04-24T21:28:33.824Z,5.63
2024-04-24T21:31:01.819Z,7.47
2024-04-24T21:33:31.001Z,7.00
2024-04-24T21:36:05.416Z,6.82
2024-04-24T21:38:35.548Z,7.45
2024-04-24T21:41:05.346Z,6.85
2024-04-24T21:43:33.412Z,5.53
2024-04-24T21:46:09.659Z,6.70
2024-04-24T21:48:37.346Z,4.65
2024-04-24T21:51:05.174Z,6.47
2024-04-24T21:53:33.499Z,4.68
2024-04-24T21:56:01.139Z,6.47
2024-04-24T21:58:28.832Z,5.25
2024-04-24T22:00:56.538Z,5.22
2024-04-24T22:03:24.567Z,5.43
2024-04-24T22:05:52.178Z,5.38
2024-04-24T22:08:19.785Z,6.28
2024-04-24T22:10:47.353Z,4.32
2024-04-24T22:13:14.980Z,5.72
2024-04-24T22:15:42.544Z,4.93
2024-04-24T22:18:14.279Z,4.25
2024-04-24T22:20:42.239Z,8.52
2024-04-24T22:23:09.814Z,5.03
2024-04-24T22:25:37.403Z,6.82
2024-04-24T22:28:05.218Z,4.82
2024-04-24T22:30:32.903Z,6.47
2024-04-24T22:33:00.610Z,5.63
2024-04-24T22:35:28.890Z,4.50
2024-04-24T22:37:56.472Z,5.03
2024-04-24T22:40:24.160Z,4.85
2024-04-24T22:42:51.825Z,5.15
2024-04-24T22:45:19.442Z,5.40
2024-04-24T22:47:47.352Z,5.82
2024-04-24T22:50:15.074Z,5.35
2024-04-24T22:52:42.641Z,5.55
2024-04-24T22:55:10.325Z,4.78
2024-04-24T22:57:37.859Z,5.20
2024-04-24T23:00:05.860Z,5.07
2024-04-24T23:02:33.595Z,6.15
2024-04-24T23:05:01.196Z,4.82
2024-04-24T23:07:28.786Z,4.78
2024-04-24T23:09:56.404Z,5.82
2024-04-24T23:12:24.015Z,6.07
2024-04-24T23:14:51.538Z,6.00
2024-04-24T23:17:19.141Z,6.43
2024-04-24T23:19:46.870Z,4.90
2024-04-24T23:22:14.366Z,5.32
2024-04-24T23:24:42.045Z,5.13
2024-04-24T23:27:09.550Z,7.00
2024-04-24T23:29:37.242Z,5.38
2024-04-24T23:32:05.183Z,7.10
2024-04-24T23:34:32.843Z,5.10
2024-04-24T23:37:00.410Z,6.40
2024-04-24T23:39:27.969Z,4.63
2024-04-24T23:41:55.441Z,4.78
2024-04-24T23:44:23.084Z,5.75
2024-04-24T23:46:50.655Z,5.45
2024-04-24T23:49:18.287Z,5.22
2024-04-24T23:51:45.774Z,5.43
2024-04-24T23:54:13.406Z,5.15
2024-04-24T23:56:41.086Z,5.10
2024-04-24T23:59:08.702Z,5.68
